createdAt,value
2017-08-14T00:00:50.160Z,100994.13
2017-08-14T00:03:21.874Z,100996.45
2017-08-14T00:05:54.543Z,100986.74
2017-08-14T00:08:25.941Z,100988.98
2017-08-14T00:10:57.432Z,100992.38
2017-08-14T00:13:28.549Z,100994.88
2017-08-14T00:15:59.699Z,100988.02
2017-08-14T00:18:31.079Z,100991.03
2017-08-14T00:21:02.583Z,100983.48
2017-08-14T00:23:33.887Z,100982.37
2017-08-14T00:27:08.115Z,100985.77
2017-08-14T00:29:39.558Z,100985.03
2017-08-14T00:32:10.787Z,100983.36
2017-08-14T00:34:41.886Z,100986.11
2017-08-14T00:37:13.812Z,100987.62
2017-08-14T00:39:44.942Z,100986.63
2017-08-14T00:42:16.129Z,100988.34
2017-08-14T00:44:49.213Z,100990.88
2017-08-14T00:47:20.285Z,100989.13
2017-08-14T00:49:53.299Z,100983.28
2017-08-14T00:52:24.869Z,100985.94
2017-08-14T00:54:56.985Z,100987.32
2017-08-14T00:57:28.220Z,100979.59
2017-08-14T00:59:59.735Z,100982.89
2017-08-14T01:02:30.800Z,100978.69
2017-08-14T01:05:02.570Z,100976.37
2017-08-14T01:12:28.725Z,100969.97
2017-08-14T01:15:00.079Z,100966.27
2017-08-14T01:17:31.323Z,100965.75
2017-08-14T01:20:03.486Z,100968.84
2017-08-14T01:22:35.027Z,100966.66
2017-08-14T01:25:06.116Z,100975.24
2017-08-14T01:27:37.173Z,100967.42
2017-08-14T01:30:08.634Z,100964.06
2017-08-14T01:32:39.734Z,100965.45
2017-08-14T01:35:10.827Z,100961.50
2017-08-14T01:37:42.245Z,100959.69
2017-08-14T01:40:13.550Z,100957.94
2017-08-14T01:42:44.911Z,100961.75
2017-08-14T01:45:16.360Z,100967.26
2017-08-14T01:47:47.799Z,100966.33
2017-08-14T01:50:19.042Z,100970.57
2017-08-14T01:52:50.572Z,100973.23
2017-08-14T01:55:21.637Z,100964.83
2017-08-14T01:57:53.199Z,100959.93
2017-08-14T02:00:24.784Z,100964.09
2017-08-14T02:02:55.887Z,100959.37
2017-08-14T02:05:26.969Z,100961.10
2017-08-14T02:07:58.403Z,100957.89
2017-08-14T02:10:29.480Z,100958.57
2017-08-14T02:13:00.870Z,100950.81
2017-08-14T02:15:31.958Z,100951.84
2017-08-14T02:18:04.053Z,100951.41
2017-08-14T02:20:35.645Z,100951.80
2017-08-14T02:23:06.885Z,100951.19
2017-08-14T02:25:38.223Z,100951.02
2017-08-14T02:28:09.581Z,100951.23
2017-08-14T02:30:40.731Z,100950.71
2017-08-14T02:33:12.305Z,100948.41
2017-08-14T02:35:43.759Z,100952.00
2017-08-14T02:38:14.821Z,100952.17
2017-08-14T02:40:46.127Z,100948.58
2017-08-14T02:43:17.633Z,100944.28
2017-08-14T02:45:49.988Z,100944.53
2017-08-14T02:48:21.514Z,100943.25
2017-08-14T02:50:53.830Z,100946.90
2017-08-14T02:53:24.963Z,100938.31
2017-08-14T02:55:56.346Z,100939.82
2017-08-14T02:58:27.527Z,100938.84
2017-08-14T03:00:58.961Z,100938.84
2017-08-14T03:03:30.877Z,100937.81
2017-08-14T03:06:03.471Z,100939.77
2017-08-14T03:08:34.602Z,100940.38
2017-08-14T03:11:05.646Z,100943.63
2017-08-14T03:13:37.264Z,100945.42
2017-08-14T03:16:08.296Z,100948.08
2017-08-14T03:18:39.614Z,100944.86
2017-08-14T03:21:10.629Z,100947.09
2017-08-14T03:23:41.673Z,100944.03
2017-08-14T03:26:12.989Z,100945.58
2017-08-14T03:28:44.010Z,100944.51
2017-08-14T03:31:15.040Z,100943.05
2017-08-14T03:33:46.108Z,100939.91
2017-08-14T03:36:17.131Z,100932.45
2017-08-14T03:38:49.288Z,100927.34
2017-08-14T03:41:20.371Z,100926.70
2017-08-14T03:43:53.165Z,100933.84
2017-08-14T03:46:24.208Z,100930.77
2017-08-14T03:48:55.353Z,100936.16
2017-08-14T03:51:26.684Z,100934.35
2017-08-14T03:53:57.812Z,100930.77
2017-08-14T03:56:28.890Z,100926.91
2017-08-14T03:59:00.199Z,100925.73
2017-08-14T04:01:31.251Z,100926.48
2017-08-14T04:04:03.008Z,100935.98
2017-08-14T04:06:34.372Z,100933.92
2017-08-14T04:09:06.190Z,100931.39
2017-08-14T04:11:37.256Z,100932.61
2017-08-14T04:14:08.610Z,100927.92
2017-08-14T04:16:39.672Z,100929.02
2017-08-14T04:19:10.995Z,100933.66
2017-08-14T04:21:42.046Z,100931.08
2017-08-14T04:24:13.102Z,100932.94
2017-08-14T04:26:44.154Z,100932.34
2017-08-14T04:29:15.183Z,100930.77
2017-08-14T04:31:46.545Z,100933.81
2017-08-14T04:34:17.745Z,100932.66
2017-08-14T04:36:49.957Z,100936.84
2017-08-14T04:39:21.187Z,100940.20
2017-08-14T04:41:53.498Z,100938.33
2017-08-14T04:44:24.994Z,100941.41
2017-08-14T04:46:56.210Z,100936.77
2017-08-14T04:49:27.685Z,100937.66
2017-08-14T04:51:58.810Z,100937.13
2017-08-14T04:54:30.224Z,100937.91
2017-08-14T04:57:02.031Z,100938.63
2017-08-14T04:59:33.114Z,100938.04
2017-08-14T05:02:05.087Z,100939.84
2017-08-14T05:04:36.525Z,100941.59
2017-08-14T05:07:07.850Z,100936.75
2017-08-14T05:09:39.197Z,100945.11
2017-08-14T05:12:10.235Z,100939.45
2017-08-14T05:14:41.587Z,100942.30
2017-08-14T05:17:12.932Z,100943.61
2017-08-14T05:19:43.967Z,100940.27
2017-08-14T05:22:15.006Z,100942.50
2017-08-14T05:24:46.330Z,100944.03
2017-08-14T05:27:17.435Z,100944.56
2017-08-14T05:29:48.668Z,100941.19
2017-08-14T05:32:19.694Z,100940.86
2017-08-14T05:34:52.038Z,100942.72
2017-08-14T05:37:23.398Z,100947.05
2017-08-14T05:39:54.976Z,100951.70
2017-08-14T05:42:26.016Z,100948.25
2017-08-14T05:44:57.471Z,100947.91
2017-08-14T05:47:28.572Z,100945.73
2017-08-14T05:49:59.945Z,100944.36
2017-08-14T05:52:30.991Z,100947.03
2017-08-14T05:55:02.208Z,100944.52
2017-08-14T05:57:33.291Z,100950.44
2017-08-14T06:00:04.772Z,100947.00
2017-08-14T06:02:36.157Z,100945.97
2017-08-14T06:05:07.198Z,100943.11
2017-08-14T06:07:38.231Z,100943.48
2017-08-14T06:10:09.583Z,100942.78
2017-08-14T06:12:40.654Z,100944.92
2017-08-14T06:15:12.090Z,100937.93
2017-08-14T06:17:43.429Z,100938.45
2017-08-14T06:20:14.499Z,100941.69
2017-08-14T06:22:45.556Z,100938.00
2017-08-14T06:25:17.683Z,100929.45
2017-08-14T06:27:50.219Z,100931.90
2017-08-14T06:30:21.303Z,100936.66
2017-08-14T06:32:53.868Z,100937.80
2017-08-14T06:35:25.114Z,100935.17
2017-08-14T06:37:56.186Z,100934.00
2017-08-14T06:40:27.511Z,100930.12
2017-08-14T06:42:58.503Z,100935.27
2017-08-14T06:45:30.159Z,100934.64
2017-08-14T06:48:01.261Z,100929.33
2017-08-14T06:50:32.330Z,100922.30
2017-08-14T06:53:04.047Z,100924.27
2017-08-14T06:55:35.139Z,100923.12
2017-08-14T06:58:06.162Z,100918.37
2017-08-14T07:00:37.497Z,100914.98
2017-08-14T07:03:09.383Z,100920.59
2017-08-14T07:05:40.723Z,100919.97
2017-08-14T07:08:11.769Z,100920.73
2017-08-14T07:10:42.874Z,100919.65
2017-08-14T07:13:14.207Z,100916.70
2017-08-14T07:15:45.640Z,100922.60
2017-08-14T07:18:16.721Z,100922.88
2017-08-14T07:20:48.188Z,100919.97
2017-08-14T07:23:19.349Z,100925.23
2017-08-14T07:25:51.550Z,100923.95
2017-08-14T07:28:23.046Z,100926.13
2017-08-14T07:30:54.089Z,100920.61
2017-08-14T07:33:25.125Z,100919.56
2017-08-14T07:35:56.432Z,100917.91
2017-08-14T07:38:27.507Z,100920.36
2017-08-14T07:40:58.556Z,100917.52
2017-08-14T07:43:30.898Z,100914.75
2017-08-14T07:46:03.698Z,100913.07
2017-08-14T07:48:35.003Z,100913.34
2017-08-14T07:51:06.060Z,100912.31
2017-08-14T07:53:37.115Z,100907.44
2017-08-14T07:56:08.215Z,100905.30
2017-08-14T07:58:39.478Z,100907.87
2017-08-14T08:01:10.810Z,100912.59
2017-08-14T08:03:42.051Z,100913.83
2017-08-14T08:06:17.905Z,100914.70
2017-08-14T08:08:53.713Z,100909.47
2017-08-14T08:11:25.538Z,100910.23
2017-08-14T08:13:57.156Z,100910.77
2017-08-14T08:16:28.554Z,100909.69
2017-08-14T08:18:59.596Z,100911.42
2017-08-14T08:21:30.635Z,100908.15
2017-08-14T08:24:02.364Z,100906.17
2017-08-14T08:26:33.723Z,100910.06
2017-08-14T08:29:05.029Z,100909.02
2017-08-14T08:31:36.116Z,100900.04
2017-08-14T08:34:07.266Z,100903.88
2017-08-14T08:36:38.540Z,100892.30
2017-08-14T08:39:09.977Z,100892.58
2017-08-14T08:41:41.114Z,100884.05
2017-08-14T08:44:16.211Z,100892.67
2017-08-14T08:46:48.024Z,100895.44
2017-08-14T08:49:20.275Z,100894.70
2017-08-14T08:51:53.559Z,100894.50
2017-08-14T08:54:24.882Z,100894.92
2017-08-14T08:56:56.785Z,100887.94
2017-08-14T08:59:28.366Z,100893.39
2017-08-14T09:01:59.560Z,100892.13
2017-08-14T09:04:30.842Z,100897.44
2017-08-14T09:07:02.788Z,100894.64
2017-08-14T09:09:33.861Z,100894.17
2017-08-14T09:12:05.554Z,100895.52
2017-08-14T09:14:36.666Z,100892.63
2017-08-14T09:17:08.017Z,100888.79
2017-08-14T09:19:39.398Z,100892.67
2017-08-14T09:22:10.475Z,100886.25
2017-08-14T09:24:41.508Z,100891.55
2017-08-14T09:27:12.577Z,100888.86
2017-08-14T09:29:43.611Z,100887.09
2017-08-14T09:32:14.924Z,100883.86
2017-08-14T09:34:46.034Z,100882.62
2017-08-14T09:37:17.514Z,100884.38
2017-08-14T09:39:50.355Z,100882.53
2017-08-14T09:42:21.468Z,100877.61
2017-08-14T09:44:53.636Z,100875.12
2017-08-14T09:47:25.053Z,100872.33
2017-08-14T09:49:56.400Z,100880.59
2017-08-14T09:52:27.460Z,100874.64
2017-08-14T09:54:58.521Z,100867.61
2017-08-14T09:57:29.892Z,100867.30
2017-08-14T10:00:01.030Z,100865.85
2017-08-14T10:02:32.106Z,100871.59
2017-08-14T10:05:04.474Z,100873.88
2017-08-14T10:07:35.543Z,100863.80
2017-08-14T10:10:06.652Z,100852.34
2017-08-14T10:12:37.971Z,100852.08
2017-08-14T10:15:09.006Z,100853.63
2017-08-14T10:17:40.637Z,100851.39
2017-08-14T10:20:11.679Z,100852.73
2017-08-14T10:22:42.757Z,100844.38
2017-08-14T10:25:14.247Z,100844.91
2017-08-14T10:27:45.304Z,100848.88
2017-08-14T10:30:16.379Z,100847.20
2017-08-14T10:32:47.556Z,100843.75
2017-08-14T10:35:18.735Z,100841.33
2017-08-14T10:37:50.946Z,100841.88
2017-08-14T10:40:21.998Z,100843.69
2017-08-14T10:42:54.034Z,100840.80
2017-08-14T10:45:25.058Z,100839.54
2017-08-14T10:47:56.638Z,100836.03
2017-08-14T10:50:28.062Z,100838.53
2017-08-14T10:52:59.115Z,100833.44
2017-08-14T10:55:30.209Z,100834.13
2017-08-14T10:58:03.087Z,100828.17
2017-08-14T11:00:34.348Z,100839.70
2017-08-14T11:03:05.714Z,100825.55
2017-08-14T11:05:36.787Z,100822.52
2017-08-14T11:08:07.874Z,100826.64
2017-08-14T11:10:39.227Z,100825.87
2017-08-14T11:13:10.383Z,100826.13
2017-08-14T11:15:41.421Z,100822.62
2017-08-14T11:18:14.356Z,100814.41
2017-08-14T11:20:45.412Z,100813.72
2017-08-14T11:23:16.763Z,100805.78
2017-08-14T11:25:48.675Z,100807.89
2017-08-14T11:28:20.156Z,100800.56
2017-08-14T11:30:53.518Z,100795.52
2017-08-14T11:33:24.695Z,100791.22
2017-08-14T11:35:56.846Z,100794.51
2017-08-14T11:38:27.910Z,100782.55
2017-08-14T11:40:59.473Z,100780.48
2017-08-14T11:43:30.822Z,100778.78
2017-08-14T11:46:03.606Z,100776.25
2017-08-14T11:48:35.064Z,100777.62
2017-08-14T11:51:06.137Z,100772.05
2017-08-14T11:53:38.675Z,100775.61
2017-08-14T11:56:10.265Z,100765.30
2017-08-14T11:58:41.488Z,100766.31
2017-08-14T12:01:12.654Z,100777.82
2017-08-14T12:03:43.689Z,100778.41
2017-08-14T12:06:14.985Z,100769.79
2017-08-14T12:08:46.426Z,100773.67
2017-08-14T12:11:17.488Z,100770.45
2017-08-14T12:13:48.780Z,100767.78
2017-08-14T12:16:20.151Z,100758.48
2017-08-14T12:18:52.850Z,100761.63
2017-08-14T12:21:24.619Z,100758.67
2017-08-14T12:23:56.620Z,100762.19
2017-08-14T12:26:29.221Z,100758.34
2017-08-14T12:29:02.382Z,100763.38
2017-08-14T12:31:34.112Z,100760.25
2017-08-14T12:34:06.572Z,100759.17
2017-08-14T12:36:37.943Z,100757.20
2017-08-14T12:39:09.151Z,100752.77
2017-08-14T12:41:40.269Z,100753.35
2017-08-14T12:44:11.829Z,100747.39
2017-08-14T12:46:42.912Z,100738.37
2017-08-14T12:49:14.549Z,100734.22
2017-08-14T12:51:45.607Z,100732.50
2017-08-14T12:54:16.646Z,100736.42
2017-08-14T12:56:47.885Z,100727.95
2017-08-14T12:59:19.077Z,100729.92
2017-08-14T13:01:53.205Z,100726.29
2017-08-14T13:04:24.244Z,100721.64
2017-08-14T13:06:56.029Z,100717.81
2017-08-14T13:09:27.104Z,100713.12
2017-08-14T13:11:58.250Z,100704.58
2017-08-14T13:14:29.721Z,100698.23
2017-08-14T13:17:01.083Z,100698.70
2017-08-14T13:19:32.553Z,100696.27
2017-08-14T13:22:04.377Z,100696.29
2017-08-14T13:24:35.420Z,100698.67
2017-08-14T13:28:09.724Z,100690.86
2017-08-14T13:30:40.825Z,100689.91
2017-08-14T13:35:42.651Z,100677.96
2017-08-14T13:38:13.716Z,100678.93
2017-08-14T13:40:50.369Z,100678.02
2017-08-14T13:43:28.850Z,100674.57
2017-08-14T13:48:37.767Z,100669.60
2017-08-14T13:51:08.965Z,100669.50
2017-08-14T13:53:41.765Z,100669.59
2017-08-14T13:56:12.985Z,100659.55
2017-08-14T13:58:44.566Z,100657.87
2017-08-14T14:01:16.200Z,100656.69
2017-08-14T14:03:47.476Z,100656.74
2017-08-14T14:06:18.813Z,100652.94
2017-08-14T14:08:51.806Z,100648.98
2017-08-14T14:11:23.265Z,100654.67
2017-08-14T14:13:54.915Z,100648.17
2017-08-14T14:16:25.909Z,100640.50
2017-08-14T14:18:56.987Z,100643.41
2017-08-14T14:21:28.509Z,100642.03
2017-08-14T14:23:59.869Z,100630.25
2017-08-14T14:26:30.910Z,100627.72
2017-08-14T14:29:02.923Z,100621.70
2017-08-14T14:31:33.974Z,100606.71
2017-08-14T14:34:06.548Z,100596.78
2017-08-14T14:36:37.586Z,100587.98
2017-08-14T14:41:42.790Z,100571.45
2017-08-14T14:44:13.866Z,100563.77
2017-08-14T14:46:45.435Z,100557.59
2017-08-14T14:49:16.510Z,100570.94
2017-08-14T14:51:47.618Z,100568.17
2017-08-14T14:54:18.695Z,100559.38
2017-08-14T14:56:50.829Z,100559.11
2017-08-14T14:59:22.638Z,100551.70
2017-08-14T15:01:54.909Z,100557.16
2017-08-14T15:04:26.211Z,100559.33
2017-08-14T15:06:57.262Z,100550.38
2017-08-14T15:09:28.555Z,100544.27
2017-08-14T15:12:00.033Z,100546.43
2017-08-14T15:16:58.640Z,100541.02
2017-08-14T15:19:30.192Z,100536.25
2017-08-14T15:22:01.428Z,100542.59
2017-08-14T15:24:32.491Z,100533.95
2017-08-14T15:27:03.994Z,100537.36
2017-08-14T15:29:35.383Z,100532.53
2017-08-14T15:32:07.025Z,100530.13
2017-08-14T15:34:38.180Z,100525.48
2017-08-14T15:37:09.618Z,100519.91
2017-08-14T15:42:09.122Z,100518.97
2017-08-14T15:44:40.479Z,100514.17
2017-08-14T15:47:11.640Z,100507.96
2017-08-14T15:49:42.764Z,100515.58
2017-08-14T15:52:14.128Z,100516.27
2017-08-14T15:54:45.377Z,100508.34
2017-08-14T15:57:16.518Z,100504.70
2017-08-14T15:59:47.898Z,100504.66
2017-08-14T16:02:19.392Z,100491.58
2017-08-14T16:04:52.324Z,100495.49
2017-08-14T16:07:23.873Z,100490.30
2017-08-14T16:09:56.525Z,100494.08
2017-08-14T16:12:27.681Z,100497.73
2017-08-14T16:14:59.312Z,100496.48
2017-08-14T16:17:30.561Z,100498.98
2017-08-14T16:20:02.707Z,100497.25
2017-08-14T16:22:34.021Z,100498.06
2017-08-14T16:25:05.491Z,100499.23
2017-08-14T16:27:37.663Z,100499.17
2017-08-14T16:30:09.006Z,100498.59
2017-08-14T16:32:41.187Z,100489.72
2017-08-14T16:35:12.843Z,100490.50
2017-08-14T16:37:44.154Z,100493.12
2017-08-14T16:40:15.820Z,100483.41
2017-08-14T16:42:46.984Z,100482.43
2017-08-14T16:45:18.460Z,100488.47
2017-08-14T16:47:51.110Z,100486.66
2017-08-14T16:50:22.258Z,100481.62
2017-08-14T16:52:55.854Z,100478.48
2017-08-14T16:55:26.891Z,100475.64
2017-08-14T16:57:58.286Z,100482.97
2017-08-14T17:00:29.399Z,100472.47
2017-08-14T17:03:01.112Z,100475.92
2017-08-14T17:05:32.492Z,100480.38
2017-08-14T17:08:04.592Z,100480.05
2017-08-14T17:10:35.941Z,100482.14
2017-08-14T17:13:10.338Z,100484.89
2017-08-14T17:15:42.142Z,100481.25
2017-08-14T17:18:14.364Z,100485.67
2017-08-14T17:20:50.520Z,100485.36
2017-08-14T17:23:25.111Z,100495.27
2017-08-14T17:25:58.237Z,100486.30
2017-08-14T17:28:29.621Z,100485.81
2017-08-14T17:31:02.620Z,100491.45
2017-08-14T17:33:34.401Z,100495.09
2017-08-14T17:36:06.391Z,100488.58
2017-08-14T17:38:38.110Z,100495.27
2017-08-14T17:41:09.390Z,100499.21
2017-08-14T17:43:40.759Z,100500.38
2017-08-14T17:46:12.295Z,100499.98
2017-08-14T17:48:44.896Z,100500.56
2017-08-14T17:51:16.082Z,100505.94
2017-08-14T17:53:47.515Z,100509.80
2017-08-14T17:56:18.687Z,100506.20
2017-08-14T17:58:53.605Z,100507.52
2017-08-14T18:01:24.741Z,100505.67
2017-08-14T18:03:56.929Z,100509.76
2017-08-14T18:06:28.565Z,100510.52
2017-08-14T18:09:00.336Z,100513.09
2017-08-14T18:11:32.069Z,100513.05
2017-08-14T18:14:04.685Z,100514.27
2017-08-14T18:16:36.118Z,100511.70
2017-08-14T18:19:07.673Z,100512.19
2017-08-14T18:21:39.048Z,100515.88
2017-08-14T18:24:11.037Z,100513.86
2017-08-14T18:26:42.858Z,100517.75
2017-08-14T18:29:13.986Z,100510.14
2017-08-14T18:31:45.410Z,100520.58
2017-08-14T18:34:17.226Z,100515.49
2017-08-14T18:39:30.739Z,100521.15
2017-08-14T18:42:03.223Z,100514.45
2017-08-14T18:44:34.482Z,100521.98
2017-08-14T18:47:06.111Z,100527.05
2017-08-14T18:49:37.417Z,100529.25
2017-08-14T18:52:09.056Z,100531.94
2017-08-14T18:54:40.500Z,100533.25
2017-08-14T18:57:11.727Z,100536.41
2017-08-14T18:59:43.469Z,100537.45
2017-08-14T19:02:14.768Z,100548.27
2017-08-14T19:04:46.794Z,100546.09
2017-08-14T19:07:18.503Z,100548.52
2017-08-14T19:09:52.249Z,100546.20
2017-08-14T19:12:23.015Z,100547.45
2017-08-14T19:14:56.135Z,100546.31
2017-08-14T19:17:27.807Z,100547.69
2017-08-14T19:20:02.808Z,100544.12
2017-08-14T19:22:34.217Z,100548.61
2017-08-14T19:25:05.451Z,100549.16
2017-08-14T19:32:15.743Z,100551.52
2017-08-14T19:34:47.467Z,100550.05
2017-08-14T19:37:19.009Z,100548.14
2017-08-14T19:39:57.447Z,100559.66
2017-08-14T19:42:28.860Z,100549.68
2017-08-14T19:45:00.179Z,100558.00
2017-08-14T19:47:31.620Z,100553.91
2017-08-14T19:50:05.055Z,100558.80
2017-08-14T19:52:36.766Z,100559.61
2017-08-14T19:55:08.214Z,100561.91
2017-08-14T19:57:39.485Z,100561.76
2017-08-14T20:00:11.079Z,100563.03
2017-08-14T20:02:42.657Z,100568.11
2017-08-14T20:05:13.916Z,100568.14
2017-08-14T20:07:46.274Z,100563.47
2017-08-14T20:10:19.281Z,100568.47
2017-08-14T20:12:54.123Z,100565.84
2017-08-14T20:15:25.310Z,100571.88
2017-08-14T20:17:57.779Z,100566.33
2017-08-14T20:20:29.129Z,100570.55
2017-08-14T20:23:00.623Z,100566.22
2017-08-14T20:25:32.355Z,100569.70
2017-08-14T20:28:05.603Z,100573.27
2017-08-14T20:30:36.989Z,100571.17
2017-08-14T20:33:08.415Z,100572.54
2017-08-14T20:35:39.493Z,100573.17
2017-08-14T20:38:11.216Z,100565.00
2017-08-14T20:40:42.637Z,100567.73
2017-08-14T20:43:17.446Z,100568.83
2017-08-14T20:45:49.475Z,100571.62
2017-08-14T20:48:20.884Z,100570.05
2017-08-14T20:50:55.504Z,100564.87
2017-08-14T20:53:26.613Z,100567.33
2017-08-14T20:56:00.468Z,100568.28
2017-08-14T20:58:33.026Z,100560.72
2017-08-14T21:01:04.475Z,100566.78
2017-08-14T21:06:32.935Z,100570.56
2017-08-14T21:09:06.696Z,100563.61
2017-08-14T21:11:38.907Z,100570.52
2017-08-14T21:14:13.684Z,100573.11
2017-08-14T21:16:47.039Z,100568.98
2017-08-14T21:19:19.392Z,100561.91
2017-08-14T21:21:52.227Z,100565.81
2017-08-14T21:24:24.866Z,100562.17
2017-08-14T21:26:58.333Z,100568.66
2017-08-14T21:29:30.939Z,100562.12
2017-08-14T21:32:11.717Z,100559.69
2017-08-14T21:34:55.393Z,100559.94
2017-08-14T21:37:26.913Z,100557.00
2017-08-14T21:40:00.214Z,100564.78
2017-08-14T21:42:32.782Z,100564.97
2017-08-14T21:45:05.566Z,100567.48
2017-08-14T21:47:40.052Z,100569.24
2017-08-14T21:50:13.900Z,100567.54
2017-08-14T21:52:45.052Z,100566.30
2017-08-14T21:55:18.619Z,100564.53
2017-08-14T21:57:52.436Z,100567.26
2017-08-14T22:00:23.584Z,100561.22
2017-08-14T22:02:56.447Z,100563.41
2017-08-14T22:05:28.446Z,100563.83
2017-08-14T22:08:00.027Z,100567.17
2017-08-14T22:10:31.071Z,100568.33
2017-08-14T22:13:02.824Z,100571.76
2017-08-14T22:15:36.601Z,100574.11
2017-08-14T22:18:08.255Z,100572.23
2017-08-14T22:20:39.522Z,100562.27
2017-08-14T22:23:10.502Z,100569.11
2017-08-14T22:25:41.576Z,100571.84
2017-08-14T22:28:13.975Z,100578.55
2017-08-14T22:30:44.958Z,100574.84
2017-08-14T22:33:15.953Z,100573.63
2017-08-14T22:35:47.369Z,100574.66
2017-08-14T22:38:18.750Z,100571.85
2017-08-14T22:40:51.266Z,100577.10
2017-08-14T22:43:27.491Z,100571.53
2017-08-14T22:45:58.799Z,100572.02
2017-08-14T22:48:30.476Z,100571.08
2017-08-14T22:51:02.097Z,100572.47
2017-08-14T22:53:33.982Z,100573.23
2017-08-14T22:56:08.195Z,100573.77
2017-08-14T22:58:39.514Z,100578.45
2017-08-14T23:01:10.583Z,100575.09
2017-08-14T23:03:42.959Z,100569.15
2017-08-14T23:06:14.964Z,100567.52
2017-08-14T23:08:47.050Z,100567.73
2017-08-14T23:11:18.059Z,100570.37
2017-08-14T23:13:49.717Z,100568.84
2017-08-14T23:16:22.687Z,100560.64
2017-08-14T23:18:56.612Z,100559.27
2017-08-14T23:21:27.981Z,100557.91
2017-08-14T23:23:59.418Z,100562.00
2017-08-14T23:26:31.242Z,100558.15
2017-08-14T23:29:03.244Z,100558.02
2017-08-14T23:31:34.606Z,100556.98
2017-08-14T23:34:09.286Z,100563.13
2017-08-14T23:36:40.427Z,100565.45
2017-08-14T23:39:11.926Z,100566.41
2017-08-14T23:41:43.210Z,100566.61
2017-08-14T23:44:15.385Z,100568.27
2017-08-14T23:46:46.655Z,100564.23
2017-08-14T23:49:17.657Z,100563.67
2017-08-14T23:51:49.246Z,100566.55
2017-08-14T23:54:21.033Z,100564.45
2017-08-14T23:56:56.289Z,100569.62
2017-08-14T23:59:28.179Z,100562.72
